Terminal Aerodrome Forecast
Issued by NWS

Home | Current Version | Previous Version | Text Only | Print | Product List | Glossary On
Versions: 1 2 3 4 5 6 7 8 9 10 11 12 13 14 15 16 17
000
FTUS43 KDVN 162300
TAFBRL
TAF
KBRL 162320Z 1700/1724 31015G20KT P6SM OVC014
     FM170300 30012G20KT P6SM BKN015
     FM170600 31010KT P6SM BKN020
     FM171200 32007KT P6SM SCT025=

USA.gov is the U.S. government's official web portal to all federal, state and local government web resources and services.